Chia-i, Taiwan
Current Conditions -  °F | °C
As of 1:00 PM on Saturday 20 Dec 2014 (Local Time) from RCMQ Reporting Station
Broken Clouds Broken Clouds  
Wind Chill: 63°   Ceiling: 5000
Heat Index: 63°   Visibility: 6mi
Dew Point: 48°   Wind: 20mph
Humidity: 59%   Direction: 20°NNE
Pressure: 30.03"   Gusts: 31mph
Location:  23.48°N, 120.44°E
Report Text: RCMQ 200500Z 02017G27KT 9999 FEW008 SCT025 BKN050 17/09 Q1017 RMK A3004
Loading
Personal Weather Stations






























Interactive Weather Map New forecast layout! Learn more

10-Day Weather Forecast

Advertisements
Track Severe Weather on mobile